sensor_id;sensor_type;location;lat;lon;timestamp;temperature;humidity
16863;DHT22;52193;48.216;-1.698;2022-12-29T14:52:15;11.00;99.90
16863;DHT22;52193;48.216;-1.698;2022-12-29T14:54:47;11.50;99.90
16863;DHT22;52193;48.216;-1.698;2022-12-29T14:57:27;11.60;99.90
16863;DHT22;52193;48.216;-1.698;2022-12-29T14:59:57;11.70;99.90
16863;DHT22;52193;48.216;-1.698;2022-12-29T15:02:32;11.90;99.90
16863;DHT22;52193;48.216;-1.698;2022-12-29T15:05:02;12.10;99.90
16863;DHT22;52193;48.216;-1.698;2022-12-29T15:07:31;12.20;99.90
16863;DHT22;52193;48.216;-1.698;2022-12-29T15:10:05;12.30;99.90
16863;DHT22;52193;48.216;-1.698;2022-12-29T15:12:37;12.40;99.90
16863;DHT22;52193;48.216;-1.698;2022-12-29T15:15:18;12.40;99.90
16863;DHT22;52193;48.216;-1.698;2022-12-29T15:17:45;12.70;99.90
16863;DHT22;52193;48.216;-1.698;2022-12-29T15:20:22;12.80;99.90
16863;DHT22;52193;48.216;-1.698;2022-12-29T15:22:54;12.90;99.90
16863;DHT22;52193;48.216;-1.698;2022-12-29T15:25:21;13.00;99.90
16863;DHT22;52193;48.216;-1.698;2022-12-29T15:27:50;12.90;99.90
16863;DHT22;52193;48.216;-1.698;2022-12-29T15:30:21;12.80;99.90
16863;DHT22;52193;48.216;-1.698;2022-12-29T15:32:49;12.80;99.90
16863;DHT22;52193;48.216;-1.698;2022-12-29T15:35:29;12.80;99.90
16863;DHT22;52193;48.216;-1.698;2022-12-29T15:37:59;12.90;99.90
16863;DHT22;52193;48.216;-1.698;2022-12-29T15:40:28;12.90;99.90
16863;DHT22;52193;48.216;-1.698;2022-12-29T15:45:44;12.90;99.90
16863;DHT22;52193;48.216;-1.698;2022-12-29T15:48:17;12.90;99.90
16863;DHT22;52193;48.216;-1.698;2022-12-29T15:50:47;12.80;99.90
16863;DHT22;52193;48.216;-1.698;2022-12-29T15:53:19;12.90;99.90
16863;DHT22;52193;48.216;-1.698;2022-12-29T15:55:50;13.00;99.90
16863;DHT22;52193;48.216;-1.698;2022-12-29T15:58:22;13.00;99.90
16863;DHT22;52193;48.216;-1.698;2022-12-29T16:00:51;13.10;99.90
16863;DHT22;52193;48.216;-1.698;2022-12-29T16:03:20;13.10;99.90
16863;DHT22;52193;48.216;-1.698;2022-12-29T16:05:54;13.10;99.90
16863;DHT22;52193;48.216;-1.698;2022-12-29T16:08:30;12.90;99.90
16863;DHT22;52193;48.216;-1.698;2022-12-29T16:11:00;12.80;99.90
16863;DHT22;52193;48.216;-1.698;2022-12-29T16:13:30;12.80;99.90
16863;DHT22;52193;48.216;-1.698;2022-12-29T16:16:01;12.80;99.90
16863;DHT22;52193;48.216;-1.698;2022-12-29T16:18:36;12.80;99.90
16863;DHT22;52193;48.216;-1.698;2022-12-29T16:21:12;12.70;99.90
16863;DHT22;52193;48.216;-1.698;2022-12-29T16:23:47;12.60;99.90
16863;DHT22;52193;48.216;-1.698;2022-12-29T16:26:16;12.50;99.90
16863;DHT22;52193;48.216;-1.698;2022-12-29T16:28:46;12.50;99.90
16863;DHT22;52193;48.216;-1.698;2022-12-29T16:31:20;12.40;99.90
16863;DHT22;52193;48.216;-1.698;2022-12-29T16:33:49;12.40;99.90
16863;DHT22;52193;48.216;-1.698;2022-12-29T16:36:28;12.40;99.90
16863;DHT22;52193;48.216;-1.698;2022-12-29T16:39:32;12.40;99.90
16863;DHT22;52193;48.216;-1.698;2022-12-29T16:41:59;12.40;99.90
16863;DHT22;52193;48.216;-1.698;2022-12-29T16:44:28;12.40;99.90
16863;DHT22;52193;48.216;-1.698;2022-12-29T16:47:04;12.30;99.90
16863;DHT22;52193;48.216;-1.698;2022-12-29T16:49:34;12.20;99.90
16863;DHT22;52193;48.216;-1.698;2022-12-29T16:52:11;12.20;99.90
16863;DHT22;52193;48.216;-1.698;2022-12-29T16:54:41;12.10;99.90
16863;DHT22;52193;48.216;-1.698;2022-12-29T16:57:09;12.00;99.90
16863;DHT22;52193;48.216;-1.698;2022-12-29T16:59:38;12.00;99.90
16863;DHT22;52193;48.216;-1.698;2022-12-29T17:02:12;11.80;99.90
16863;DHT22;52193;48.216;-1.698;2022-12-29T17:04:40;11.90;99.90
16863;DHT22;52193;48.216;-1.698;2022-12-29T17:07:11;11.90;99.90
16863;DHT22;52193;48.216;-1.698;2022-12-29T17:09:43;11.80;99.90
16863;DHT22;52193;48.216;-1.698;2022-12-29T17:12:13;11.80;99.90
16863;DHT22;52193;48.216;-1.698;2022-12-29T17:14:43;11.70;99.90
16863;DHT22;52193;48.216;-1.698;2022-12-29T17:17:17;11.70;99.90
16863;DHT22;52193;48.216;-1.698;2022-12-29T17:19:47;11.70;99.90
16863;DHT22;52193;48.216;-1.698;2022-12-29T17:22:17;11.80;99.90
16863;DHT22;52193;48.216;-1.698;2022-12-29T17:24:46;11.80;99.90
16863;DHT22;52193;48.216;-1.698;2022-12-29T17:27:23;11.70;99.90
16863;DHT22;52193;48.216;-1.698;2022-12-29T17:29:51;11.70;99.90
16863;DHT22;52193;48.216;-1.698;2022-12-29T17:32:19;11.70;99.90
16863;DHT22;52193;48.216;-1.698;2022-12-29T17:34:46;11.60;99.90
16863;DHT22;52193;48.216;-1.698;2022-12-29T17:37:33;11.60;99.90
16863;DHT22;52193;48.216;-1.698;2022-12-29T17:40:02;11.50;99.90
16863;DHT22;52193;48.216;-1.698;2022-12-29T17:42:30;11.50;99.90
16863;DHT22;52193;48.216;-1.698;2022-12-29T17:45:00;11.50;99.90
16863;DHT22;52193;48.216;-1.698;2022-12-29T17:47:27;11.40;99.90
16863;DHT22;52193;48.216;-1.698;2022-12-29T17:49:54;11.50;99.90
16863;DHT22;52193;48.216;-1.698;2022-12-29T17:52:21;11.50;99.90
16863;DHT22;52193;48.216;-1.698;2022-12-29T17:54:51;11.60;99.90
16863;DHT22;52193;48.216;-1.698;2022-12-29T17:57:20;11.50;99.90
16863;DHT22;52193;48.216;-1.698;2022-12-29T17:59:48;11.60;99.90
16863;DHT22;52193;48.216;-1.698;2022-12-29T18:02:23;11.60;99.90
16863;DHT22;52193;48.216;-1.698;2022-12-29T18:04:51;11.60;99.90
16863;DHT22;52193;48.216;-1.698;2022-12-29T18:07:18;11.60;99.90
16863;DHT22;52193;48.216;-1.698;2022-12-29T18:09:45;11.60;99.90
16863;DHT22;52193;48.216;-1.698;2022-12-29T18:12:26;11.60;99.90
16863;DHT22;52193;48.216;-1.698;2022-12-29T18:14:54;11.60;99.90
16863;DHT22;52193;48.216;-1.698;2022-12-29T18:17:21;11.60;99.90
16863;DHT22;52193;48.216;-1.698;2022-12-29T18:19:48;11.60;99.90
16863;DHT22;52193;48.216;-1.698;2022-12-29T18:22:20;11.40;99.90
16863;DHT22;52193;48.216;-1.698;2022-12-29T18:24:47;11.30;99.90
16863;DHT22;52193;48.216;-1.698;2022-12-29T18:27:14;11.30;99.90
16863;DHT22;52193;48.216;-1.698;2022-12-29T18:29:45;11.20;99.90
16863;DHT22;52193;48.216;-1.698;2022-12-29T18:32:12;11.20;99.90
16863;DHT22;52193;48.216;-1.698;2022-12-29T18:34:39;11.20;99.90
16863;DHT22;52193;48.216;-1.698;2022-12-29T18:37:07;11.20;99.90
16863;DHT22;52193;48.216;-1.698;2022-12-29T18:39:34;11.30;99.90
16863;DHT22;52193;48.216;-1.698;2022-12-29T18:42:02;11.30;99.90
16863;DHT22;52193;48.216;-1.698;2022-12-29T18:44:29;11.20;99.90
16863;DHT22;52193;48.216;-1.698;2022-12-29T18:46:58;11.30;99.90
16863;DHT22;52193;48.216;-1.698;2022-12-29T18:49:25;11.20;99.90
16863;DHT22;52193;48.216;-1.698;2022-12-29T18:51:52;11.20;99.90
16863;DHT22;52193;48.216;-1.698;2022-12-29T18:54:27;11.20;99.90
16863;DHT22;52193;48.216;-1.698;2022-12-29T18:56:55;11.20;99.90
16863;DHT22;52193;48.216;-1.698;2022-12-29T18:59:22;11.20;99.90
16863;DHT22;52193;48.216;-1.698;2022-12-29T19:01:50;11.10;99.90
16863;DHT22;52193;48.216;-1.698;2022-12-29T19:04:18;11.10;99.90
16863;DHT22;52193;48.216;-1.698;2022-12-29T19:06:46;11.00;99.90
16863;DHT22;52193;48.216;-1.698;2022-12-29T19:09:13;11.10;99.90
16863;DHT22;52193;48.216;-1.698;2022-12-29T19:11:40;11.10;99.90
16863;DHT22;52193;48.216;-1.698;2022-12-29T19:14:13;11.20;99.90
16863;DHT22;52193;48.216;-1.698;2022-12-29T19:16:41;11.20;99.90
16863;DHT22;52193;48.216;-1.698;2022-12-29T19:19:13;11.00;99.90
16863;DHT22;52193;48.216;-1.698;2022-12-29T19:21:42;11.10;99.90
16863;DHT22;52193;48.216;-1.698;2022-12-29T19:24:09;11.10;99.90
16863;DHT22;52193;48.216;-1.698;2022-12-29T19:26:37;11.00;99.90
16863;DHT22;52193;48.216;-1.698;2022-12-29T19:29:05;11.00;99.90
16863;DHT22;52193;48.216;-1.698;2022-12-29T19:31:34;11.00;99.90
16863;DHT22;52193;48.216;-1.698;2022-12-29T19:34:02;11.00;99.90
16863;DHT22;52193;48.216;-1.698;2022-12-29T19:36:30;10.90;99.90
16863;DHT22;52193;48.216;-1.698;2022-12-29T19:38:58;10.90;99.90
16863;DHT22;52193;48.216;-1.698;2022-12-29T19:41:25;10.90;99.90
16863;DHT22;52193;48.216;-1.698;2022-12-29T19:43:52;10.90;99.90
16863;DHT22;52193;48.216;-1.698;2022-12-29T19:46:19;10.90;99.90
16863;DHT22;52193;48.216;-1.698;2022-12-29T19:48:47;10.90;99.90
16863;DHT22;52193;48.216;-1.698;2022-12-29T19:51:15;10.90;99.90
16863;DHT22;52193;48.216;-1.698;2022-12-29T19:53:43;11.00;99.90
16863;DHT22;52193;48.216;-1.698;2022-12-29T19:56:12;11.00;99.90
16863;DHT22;52193;48.216;-1.698;2022-12-29T19:58:39;11.00;99.90
16863;DHT22;52193;48.216;-1.698;2022-12-29T20:01:08;11.00;99.90
16863;DHT22;52193;48.216;-1.698;2022-12-29T20:03:37;10.90;99.90
16863;DHT22;52193;48.216;-1.698;2022-12-29T20:06:04;10.90;99.90
16863;DHT22;52193;48.216;-1.698;2022-12-29T20:08:32;10.90;99.90
16863;DHT22;52193;48.216;-1.698;2022-12-29T20:11:00;10.90;99.90
16863;DHT22;52193;48.216;-1.698;2022-12-29T20:13:30;10.70;99.90
16863;DHT22;52193;48.216;-1.698;2022-12-29T20:15:58;10.80;99.90
16863;DHT22;52193;48.216;-1.698;2022-12-29T20:18:25;10.70;99.90
16863;DHT22;52193;48.216;-1.698;2022-12-29T20:20:52;10.80;99.90
16863;DHT22;52193;48.216;-1.698;2022-12-29T20:23:20;10.80;99.90
16863;DHT22;52193;48.216;-1.698;2022-12-29T20:25:53;10.80;99.90
16863;DHT22;52193;48.216;-1.698;2022-12-29T20:28:20;10.80;99.90
16863;DHT22;52193;48.216;-1.698;2022-12-29T20:30:57;10.80;99.90
16863;DHT22;52193;48.216;-1.698;2022-12-29T20:33:24;10.80;99.90
16863;DHT22;52193;48.216;-1.698;2022-12-29T20:35:51;10.70;99.90
16863;DHT22;52193;48.216;-1.698;2022-12-29T20:38:19;10.70;99.90
16863;DHT22;52193;48.216;-1.698;2022-12-29T20:40:46;10.80;99.90
16863;DHT22;52193;48.216;-1.698;2022-12-29T20:43:14;10.70;99.90
16863;DHT22;52193;48.216;-1.698;2022-12-29T20:45:41;10.70;99.90
16863;DHT22;52193;48.216;-1.698;2022-12-29T20:48:10;10.70;99.90
16863;DHT22;52193;48.216;-1.698;2022-12-29T20:50:37;10.60;99.90
16863;DHT22;52193;48.216;-1.698;2022-12-29T20:53:04;10.60;99.90
16863;DHT22;52193;48.216;-1.698;2022-12-29T20:55:31;10.50;99.90
16863;DHT22;52193;48.216;-1.698;2022-12-29T20:57:58;10.50;99.90
16863;DHT22;52193;48.216;-1.698;2022-12-29T21:00:25;10.50;99.90
16863;DHT22;52193;48.216;-1.698;2022-12-29T21:02:54;10.40;99.90
16863;DHT22;52193;48.216;-1.698;2022-12-29T21:05:23;10.40;99.90
16863;DHT22;52193;48.216;-1.698;2022-12-29T21:07:50;10.40;99.90
16863;DHT22;52193;48.216;-1.698;2022-12-29T21:10:17;10.30;99.90
16863;DHT22;52193;48.216;-1.698;2022-12-29T21:12:44;10.30;99.90
16863;DHT22;52193;48.216;-1.698;2022-12-29T21:15:12;10.30;99.90
16863;DHT22;52193;48.216;-1.698;2022-12-29T21:17:40;10.20;99.90
16863;DHT22;52193;48.216;-1.698;2022-12-29T21:20:08;10.20;99.90
16863;DHT22;52193;48.216;-1.698;2022-12-29T21:22:36;10.10;99.90
16863;DHT22;52193;48.216;-1.698;2022-12-29T21:25:04;10.10;99.90
16863;DHT22;52193;48.216;-1.698;2022-12-29T21:27:32;10.20;99.90
16863;DHT22;52193;48.216;-1.698;2022-12-29T21:29:59;10.20;99.90
16863;DHT22;52193;48.216;-1.698;2022-12-29T21:32:26;10.10;99.90
16863;DHT22;52193;48.216;-1.698;2022-12-29T21:34:53;10.20;99.90
16863;DHT22;52193;48.216;-1.698;2022-12-29T21:37:20;10.20;99.90
16863;DHT22;52193;48.216;-1.698;2022-12-29T21:39:48;10.10;99.90
16863;DHT22;52193;48.216;-1.698;2022-12-29T21:42:15;10.20;99.90
16863;DHT22;52193;48.216;-1.698;2022-12-29T21:44:42;10.20;99.90
16863;DHT22;52193;48.216;-1.698;2022-12-29T21:47:27;10.20;99.90
16863;DHT22;52193;48.216;-1.698;2022-12-29T21:50:14;10.20;99.90
16863;DHT22;52193;48.216;-1.698;2022-12-29T21:52:41;10.20;99.90
16863;DHT22;52193;48.216;-1.698;2022-12-29T21:55:10;10.10;99.90
16863;DHT22;52193;48.216;-1.698;2022-12-29T21:57:37;10.20;99.90
16863;DHT22;52193;48.216;-1.698;2022-12-29T22:00:21;10.10;99.90
16863;DHT22;52193;48.216;-1.698;2022-12-29T22:03:05;10.00;99.90
16863;DHT22;52193;48.216;-1.698;2022-12-29T22:05:50;10.20;99.90
16863;DHT22;52193;48.216;-1.698;2022-12-29T22:08:34;10.40;99.90
16863;DHT22;52193;48.216;-1.698;2022-12-29T22:11:20;10.40;99.90
16863;DHT22;52193;48.216;-1.698;2022-12-29T22:14:04;10.50;99.90
16863;DHT22;52193;48.216;-1.698;2022-12-29T22:16:31;10.50;99.90
16863;DHT22;52193;48.216;-1.698;2022-12-29T22:18:58;10.60;99.90
16863;DHT22;52193;48.216;-1.698;2022-12-29T22:21:25;10.60;99.90
16863;DHT22;52193;48.216;-1.698;2022-12-29T22:23:52;10.60;99.90
16863;DHT22;52193;48.216;-1.698;2022-12-29T22:26:21;10.60;99.90
16863;DHT22;52193;48.216;-1.698;2022-12-29T22:28:48;10.60;99.90
16863;DHT22;52193;48.216;-1.698;2022-12-29T22:31:22;10.70;99.90
16863;DHT22;52193;48.216;-1.698;2022-12-29T22:33:53;10.70;99.90
16863;DHT22;52193;48.216;-1.698;2022-12-29T22:36:20;10.60;99.90
16863;DHT22;52193;48.216;-1.698;2022-12-29T22:38:47;10.60;99.90
16863;DHT22;52193;48.216;-1.698;2022-12-29T22:41:14;10.60;99.90
16863;DHT22;52193;48.216;-1.698;2022-12-29T22:43:43;10.50;99.90
16863;DHT22;52193;48.216;-1.698;2022-12-29T22:46:10;10.60;99.90
16863;DHT22;52193;48.216;-1.698;2022-12-29T22:48:37;10.60;99.90
16863;DHT22;52193;48.216;-1.698;2022-12-29T22:51:04;10.60;99.90
16863;DHT22;52193;48.216;-1.698;2022-12-29T22:53:31;10.50;99.90
16863;DHT22;52193;48.216;-1.698;2022-12-29T22:56:03;10.50;99.90
16863;DHT22;52193;48.216;-1.698;2022-12-29T22:58:30;10.50;99.90
16863;DHT22;52193;48.216;-1.698;2022-12-29T23:00:58;10.50;99.90
16863;DHT22;52193;48.216;-1.698;2022-12-29T23:03:25;10.50;99.90
16863;DHT22;52193;48.216;-1.698;2022-12-29T23:05:57;10.60;99.90
16863;DHT22;52193;48.216;-1.698;2022-12-29T23:08:24;10.50;99.90
16863;DHT22;52193;48.216;-1.698;2022-12-29T23:10:51;10.50;99.90
16863;DHT22;52193;48.216;-1.698;2022-12-29T23:13:18;10.60;99.90
16863;DHT22;52193;48.216;-1.698;2022-12-29T23:15:46;10.60;99.90
16863;DHT22;52193;48.216;-1.698;2022-12-29T23:18:14;10.60;99.90
16863;DHT22;52193;48.216;-1.698;2022-12-29T23:20:42;10.60;99.90
16863;DHT22;52193;48.216;-1.698;2022-12-29T23:23:09;10.60;99.90
16863;DHT22;52193;48.216;-1.698;2022-12-29T23:25:36;10.60;99.90
16863;DHT22;52193;48.216;-1.698;2022-12-29T23:28:05;10.60;99.90
16863;DHT22;52193;48.216;-1.698;2022-12-29T23:30:32;10.60;99.90
16863;DHT22;52193;48.216;-1.698;2022-12-29T23:33:00;10.60;99.90
16863;DHT22;52193;48.216;-1.698;2022-12-29T23:35:28;10.60;99.90
16863;DHT22;52193;48.216;-1.698;2022-12-29T23:37:55;10.60;99.90
16863;DHT22;52193;48.216;-1.698;2022-12-29T23:40:22;10.60;99.90
16863;DHT22;52193;48.216;-1.698;2022-12-29T23:42:49;10.40;99.90
16863;DHT22;52193;48.216;-1.698;2022-12-29T23:45:16;10.50;99.90
16863;DHT22;52193;48.216;-1.698;2022-12-29T23:47:43;10.60;99.90
16863;DHT22;52193;48.216;-1.698;2022-12-29T23:50:10;10.50;99.90
16863;DHT22;52193;48.216;-1.698;2022-12-29T23:52:39;10.40;99.90
16863;DHT22;52193;48.216;-1.698;2022-12-29T23:55:07;10.50;99.90
16863;DHT22;52193;48.216;-1.698;2022-12-29T23:57:34;10.50;99.90
